Terminal Aerodrome Forecast
Issued by NWS

Home | Current Version | Previous Version | Text Only | Print | Product List | Glossary On
Versions: 1 2 3 4 5 6 7 8 9 10 11 12 13 14 15 16 17 18 19
180
FTUS43 KAPX 292325
TAFMBL
TAF
KMBL 292325Z 3000/3024 05009G17KT P6SM VCSH BKN100
     FM300200 05009KT P6SM -RA OVC090
     FM300600 05008KT P6SM -RA OVC025
     FM300800 06010KT P6SM RA OVC015
     FM301300 08014G25KT P6SM RA OVC015
     FM302100 09013G21KT 2SM -RA BR OVC015=

USA.gov is the U.S. government's official web portal to all federal, state and local government web resources and services.